sensor_id;sensor_type;location;lat;lon;timestamp;P1;durP1;ratioP1;P2;durP2;ratioP2
52614;SDS011;38508;53.158;6.614;2023-02-01T00:01:28;38.08;;;6.18;;
52614;SDS011;38508;53.158;6.614;2023-02-01T00:03:54;35.83;;;6.00;;
52614;SDS011;38508;53.158;6.614;2023-02-01T00:06:20;27.45;;;5.07;;
52614;SDS011;38508;53.158;6.614;2023-02-01T00:08:46;36.03;;;6.55;;
52614;SDS011;38508;53.158;6.614;2023-02-01T00:11:12;44.60;;;6.53;;
52614;SDS011;38508;53.158;6.614;2023-02-01T00:13:38;32.72;;;4.95;;
52614;SDS011;38508;53.158;6.614;2023-02-01T00:16:10;36.25;;;5.75;;
52614;SDS011;38508;53.158;6.614;2023-02-01T00:18:43;31.33;;;5.90;;
52614;SDS011;38508;53.158;6.614;2023-02-01T00:21:10;32.15;;;5.38;;
52614;SDS011;38508;53.158;6.614;2023-02-01T00:23:36;33.40;;;5.22;;
52614;SDS011;38508;53.158;6.614;2023-02-01T00:26:05;32.25;;;4.90;;
52614;SDS011;38508;53.158;6.614;2023-02-01T00:28:32;24.33;;;4.82;;
52614;SDS011;38508;53.158;6.614;2023-02-01T00:31:02;34.05;;;5.90;;
52614;SDS011;38508;53.158;6.614;2023-02-01T00:33:29;41.33;;;6.03;;
52614;SDS011;38508;53.158;6.614;2023-02-01T00:35:56;41.70;;;5.85;;
52614;SDS011;38508;53.158;6.614;2023-02-01T00:38:24;35.33;;;4.88;;
52614;SDS011;38508;53.158;6.614;2023-02-01T00:40:50;32.72;;;5.00;;
52614;SDS011;38508;53.158;6.614;2023-02-01T00:43:15;27.23;;;5.18;;
52614;SDS011;38508;53.158;6.614;2023-02-01T00:45:41;37.90;;;5.40;;
52614;SDS011;38508;53.158;6.614;2023-02-01T00:48:07;34.15;;;5.20;;
52614;SDS011;38508;53.158;6.614;2023-02-01T00:50:33;37.35;;;5.43;;
52614;SDS011;38508;53.158;6.614;2023-02-01T00:52:58;34.10;;;5.30;;
52614;SDS011;38508;53.158;6.614;2023-02-01T00:55:24;31.13;;;5.45;;
52614;SDS011;38508;53.158;6.614;2023-02-01T00:57:50;28.05;;;5.10;;
52614;SDS011;38508;53.158;6.614;2023-02-01T01:00:16;31.40;;;5.65;;
52614;SDS011;38508;53.158;6.614;2023-02-01T01:02:42;30.10;;;5.80;;
52614;SDS011;38508;53.158;6.614;2023-02-01T01:05:07;36.13;;;5.72;;
52614;SDS011;38508;53.158;6.614;2023-02-01T01:07:33;26.95;;;4.63;;
52614;SDS011;38508;53.158;6.614;2023-02-01T01:09:59;28.05;;;5.53;;
52614;SDS011;38508;53.158;6.614;2023-02-01T01:12:25;32.55;;;5.35;;
52614;SDS011;38508;53.158;6.614;2023-02-01T01:14:51;32.10;;;4.95;;
52614;SDS011;38508;53.158;6.614;2023-02-01T01:17:16;33.92;;;4.57;;
52614;SDS011;38508;53.158;6.614;2023-02-01T01:19:42;31.65;;;4.93;;
52614;SDS011;38508;53.158;6.614;2023-02-01T01:22:08;32.95;;;5.45;;
52614;SDS011;38508;53.158;6.614;2023-02-01T01:24:33;32.53;;;6.38;;
52614;SDS011;38508;53.158;6.614;2023-02-01T01:26:59;32.88;;;5.90;;
52614;SDS011;38508;53.158;6.614;2023-02-01T01:29:25;35.08;;;5.43;;
52614;SDS011;38508;53.158;6.614;2023-02-01T01:31:50;29.27;;;4.78;;
52614;SDS011;38508;53.158;6.614;2023-02-01T01:34:16;29.25;;;5.50;;
52614;SDS011;38508;53.158;6.614;2023-02-01T01:36:42;36.75;;;6.10;;
52614;SDS011;38508;53.158;6.614;2023-02-01T01:39:07;25.83;;;5.05;;
52614;SDS011;38508;53.158;6.614;2023-02-01T01:41:33;31.00;;;6.35;;
52614;SDS011;38508;53.158;6.614;2023-02-01T01:44:01;36.05;;;5.28;;
52614;SDS011;38508;53.158;6.614;2023-02-01T01:48:58;25.27;;;5.18;;
52614;SDS011;38508;53.158;6.614;2023-02-01T01:51:42;31.45;;;6.10;;
52614;SDS011;38508;53.158;6.614;2023-02-01T01:54:25;35.10;;;6.15;;
52614;SDS011;38508;53.158;6.614;2023-02-01T01:56:57;31.45;;;6.40;;
52614;SDS011;38508;53.158;6.614;2023-02-01T01:59:26;37.47;;;7.10;;
52614;SDS011;38508;53.158;6.614;2023-02-01T02:01:53;35.65;;;7.32;;
52614;SDS011;38508;53.158;6.614;2023-02-01T02:04:20;31.45;;;6.40;;
52614;SDS011;38508;53.158;6.614;2023-02-01T02:09:34;38.92;;;7.65;;
52614;SDS011;38508;53.158;6.614;2023-02-01T02:12:00;34.78;;;7.18;;
52614;SDS011;38508;53.158;6.614;2023-02-01T02:14:26;41.95;;;8.27;;
52614;SDS011;38508;53.158;6.614;2023-02-01T02:36:34;30.17;;;9.90;;
52614;SDS011;38508;53.158;6.614;2023-02-01T02:42:13;30.08;;;10.20;;
52614;SDS011;38508;53.158;6.614;2023-02-01T02:46:15;39.30;;;10.32;;
52614;SDS011;38508;53.158;6.614;2023-02-01T02:48:38;31.83;;;8.43;;
52614;SDS011;38508;53.158;6.614;2023-02-01T02:54:13;34.20;;;10.55;;
52614;SDS011;38508;53.158;6.614;2023-02-01T02:57:01;35.88;;;8.30;;
52614;SDS011;38508;53.158;6.614;2023-02-01T02:59:49;32.47;;;10.05;;
52614;SDS011;38508;53.158;6.614;2023-02-01T03:02:34;46.28;;;9.02;;
52614;SDS011;38508;53.158;6.614;2023-02-01T03:05:20;36.35;;;7.70;;
52614;SDS011;38508;53.158;6.614;2023-02-01T03:13:27;34.45;;;5.53;;
52614;SDS011;38508;53.158;6.614;2023-02-01T03:18:55;37.55;;;6.88;;
52614;SDS011;38508;53.158;6.614;2023-02-01T03:21:38;28.70;;;5.60;;
52614;SDS011;38508;53.158;6.614;2023-02-01T03:24:11;27.95;;;5.57;;
52614;SDS011;38508;53.158;6.614;2023-02-01T03:26:45;36.70;;;5.97;;
52614;SDS011;38508;53.158;6.614;2023-02-01T03:29:18;33.03;;;5.80;;
52614;SDS011;38508;53.158;6.614;2023-02-01T03:31:50;29.20;;;5.45;;
52614;SDS011;38508;53.158;6.614;2023-02-01T03:34:16;35.67;;;7.18;;
52614;SDS011;38508;53.158;6.614;2023-02-01T03:36:48;30.88;;;5.40;;
52614;SDS011;38508;53.158;6.614;2023-02-01T03:39:19;30.80;;;6.07;;
52614;SDS011;38508;53.158;6.614;2023-02-01T03:42:09;33.55;;;6.05;;
52614;SDS011;38508;53.158;6.614;2023-02-01T03:45:01;35.53;;;6.30;;
52614;SDS011;38508;53.158;6.614;2023-02-01T03:47:35;28.15;;;6.07;;
52614;SDS011;38508;53.158;6.614;2023-02-01T03:50:05;30.20;;;7.25;;
52614;SDS011;38508;53.158;6.614;2023-02-01T03:52:42;32.92;;;6.70;;
52614;SDS011;38508;53.158;6.614;2023-02-01T03:55:10;32.88;;;7.10;;
52614;SDS011;38508;53.158;6.614;2023-02-01T03:57:41;41.45;;;7.47;;
52614;SDS011;38508;53.158;6.614;2023-02-01T04:02:40;37.60;;;8.23;;
52614;SDS011;38508;53.158;6.614;2023-02-01T04:05:06;36.63;;;9.20;;
52614;SDS011;38508;53.158;6.614;2023-02-01T04:07:31;44.42;;;10.82;;
52614;SDS011;38508;53.158;6.614;2023-02-01T04:09:57;39.10;;;10.95;;
52614;SDS011;38508;53.158;6.614;2023-02-01T04:12:23;36.80;;;8.77;;
52614;SDS011;38508;53.158;6.614;2023-02-01T04:14:48;41.33;;;7.43;;
52614;SDS011;38508;53.158;6.614;2023-02-01T04:17:14;33.13;;;7.70;;
52614;SDS011;38508;53.158;6.614;2023-02-01T04:19:40;28.27;;;7.47;;
52614;SDS011;38508;53.158;6.614;2023-02-01T04:22:05;33.92;;;7.03;;
52614;SDS011;38508;53.158;6.614;2023-02-01T04:24:31;29.33;;;7.95;;
52614;SDS011;38508;53.158;6.614;2023-02-01T04:26:57;35.08;;;6.70;;
52614;SDS011;38508;53.158;6.614;2023-02-01T04:29:22;31.58;;;7.05;;
52614;SDS011;38508;53.158;6.614;2023-02-01T04:31:48;36.97;;;7.15;;
52614;SDS011;38508;53.158;6.614;2023-02-01T04:34:14;27.48;;;6.97;;
52614;SDS011;38508;53.158;6.614;2023-02-01T04:36:40;30.77;;;6.68;;
52614;SDS011;38508;53.158;6.614;2023-02-01T04:39:07;37.92;;;6.40;;
52614;SDS011;38508;53.158;6.614;2023-02-01T04:41:34;40.20;;;7.43;;
52614;SDS011;38508;53.158;6.614;2023-02-01T04:43:59;31.92;;;6.40;;
52614;SDS011;38508;53.158;6.614;2023-02-01T04:46:25;42.78;;;8.57;;
52614;SDS011;38508;53.158;6.614;2023-02-01T04:48:51;30.00;;;7.72;;
52614;SDS011;38508;53.158;6.614;2023-02-01T04:51:17;33.42;;;7.20;;
52614;SDS011;38508;53.158;6.614;2023-02-01T04:53:43;33.30;;;6.15;;
52614;SDS011;38508;53.158;6.614;2023-02-01T04:56:09;31.27;;;7.50;;
52614;SDS011;38508;53.158;6.614;2023-02-01T04:58:35;36.42;;;7.10;;
52614;SDS011;38508;53.158;6.614;2023-02-01T05:01:04;26.23;;;6.28;;
52614;SDS011;38508;53.158;6.614;2023-02-01T05:03:32;36.33;;;6.70;;
52614;SDS011;38508;53.158;6.614;2023-02-01T05:05:58;35.50;;;6.82;;
52614;SDS011;38508;53.158;6.614;2023-02-01T05:08:25;30.88;;;5.55;;
52614;SDS011;38508;53.158;6.614;2023-02-01T05:10:52;49.22;;;6.43;;
52614;SDS011;38508;53.158;6.614;2023-02-01T05:13:18;32.50;;;7.07;;
52614;SDS011;38508;53.158;6.614;2023-02-01T05:16:02;30.10;;;6.43;;
52614;SDS011;38508;53.158;6.614;2023-02-01T05:18:29;35.80;;;7.43;;
52614;SDS011;38508;53.158;6.614;2023-02-01T05:20:54;33.03;;;6.88;;
52614;SDS011;38508;53.158;6.614;2023-02-01T05:23:20;24.50;;;6.13;;
52614;SDS011;38508;53.158;6.614;2023-02-01T05:25:46;34.80;;;6.43;;
52614;SDS011;38508;53.158;6.614;2023-02-01T05:28:11;24.17;;;6.00;;
52614;SDS011;38508;53.158;6.614;2023-02-01T05:30:37;32.10;;;7.15;;
52614;SDS011;38508;53.158;6.614;2023-02-01T05:33:03;30.90;;;6.30;;
52614;SDS011;38508;53.158;6.614;2023-02-01T05:35:29;28.52;;;6.03;;
52614;SDS011;38508;53.158;6.614;2023-02-01T05:37:55;42.28;;;6.50;;
52614;SDS011;38508;53.158;6.614;2023-02-01T05:40:21;39.78;;;7.68;;
52614;SDS011;38508;53.158;6.614;2023-02-01T05:42:47;29.90;;;6.22;;
52614;SDS011;38508;53.158;6.614;2023-02-01T05:45:13;36.17;;;6.97;;
52614;SDS011;38508;53.158;6.614;2023-02-01T05:47:38;35.55;;;6.50;;
52614;SDS011;38508;53.158;6.614;2023-02-01T05:50:04;32.17;;;6.03;;
52614;SDS011;38508;53.158;6.614;2023-02-01T05:52:31;30.23;;;4.97;;
52614;SDS011;38508;53.158;6.614;2023-02-01T05:54:57;27.08;;;5.65;;
52614;SDS011;38508;53.158;6.614;2023-02-01T05:57:23;29.02;;;5.90;;
52614;SDS011;38508;53.158;6.614;2023-02-01T05:59:48;25.58;;;5.25;;
52614;SDS011;38508;53.158;6.614;2023-02-01T06:02:15;33.40;;;6.10;;
52614;SDS011;38508;53.158;6.614;2023-02-01T06:04:41;25.00;;;4.95;;
52614;SDS011;38508;53.158;6.614;2023-02-01T06:07:08;29.02;;;5.43;;
52614;SDS011;38508;53.158;6.614;2023-02-01T06:09:35;24.10;;;5.40;;
52614;SDS011;38508;53.158;6.614;2023-02-01T06:12:02;29.95;;;6.10;;
52614;SDS011;38508;53.158;6.614;2023-02-01T06:14:28;32.22;;;6.40;;
52614;SDS011;38508;53.158;6.614;2023-02-01T06:16:54;35.38;;;6.07;;
52614;SDS011;38508;53.158;6.614;2023-02-01T06:19:20;25.25;;;7.13;;
52614;SDS011;38508;53.158;6.614;2023-02-01T06:21:47;36.58;;;6.20;;
52614;SDS011;38508;53.158;6.614;2023-02-01T06:24:12;27.40;;;6.00;;
52614;SDS011;38508;53.158;6.614;2023-02-01T06:26:38;35.47;;;5.20;;
52614;SDS011;38508;53.158;6.614;2023-02-01T06:29:09;29.65;;;6.13;;
52614;SDS011;38508;53.158;6.614;2023-02-01T06:31:35;29.98;;;5.70;;
52614;SDS011;38508;53.158;6.614;2023-02-01T06:34:02;26.50;;;5.80;;
52614;SDS011;38508;53.158;6.614;2023-02-01T06:36:28;25.42;;;5.50;;
52614;SDS011;38508;53.158;6.614;2023-02-01T06:38:54;30.73;;;6.38;;
52614;SDS011;38508;53.158;6.614;2023-02-01T06:41:21;28.13;;;5.78;;
52614;SDS011;38508;53.158;6.614;2023-02-01T06:43:50;24.40;;;5.68;;
52614;SDS011;38508;53.158;6.614;2023-02-01T06:46:16;29.02;;;5.47;;
52614;SDS011;38508;53.158;6.614;2023-02-01T06:48:42;33.88;;;6.00;;
52614;SDS011;38508;53.158;6.614;2023-02-01T06:51:18;25.05;;;6.50;;
52614;SDS011;38508;53.158;6.614;2023-02-01T06:53:45;29.67;;;5.40;;
52614;SDS011;38508;53.158;6.614;2023-02-01T06:56:11;33.60;;;6.25;;
52614;SDS011;38508;53.158;6.614;2023-02-01T06:58:37;33.80;;;5.97;;
52614;SDS011;38508;53.158;6.614;2023-02-01T07:01:05;32.13;;;6.03;;
52614;SDS011;38508;53.158;6.614;2023-02-01T07:03:31;31.05;;;6.10;;
52614;SDS011;38508;53.158;6.614;2023-02-01T07:05:57;37.58;;;6.65;;
52614;SDS011;38508;53.158;6.614;2023-02-01T07:08:24;27.88;;;6.05;;
52614;SDS011;38508;53.158;6.614;2023-02-01T07:10:51;28.10;;;6.57;;
52614;SDS011;38508;53.158;6.614;2023-02-01T07:13:17;33.25;;;5.70;;
52614;SDS011;38508;53.158;6.614;2023-02-01T07:15:42;31.08;;;6.07;;
52614;SDS011;38508;53.158;6.614;2023-02-01T07:18:08;25.17;;;6.20;;
52614;SDS011;38508;53.158;6.614;2023-02-01T07:20:34;34.08;;;6.00;;
52614;SDS011;38508;53.158;6.614;2023-02-01T07:22:59;29.20;;;5.50;;
52614;SDS011;38508;53.158;6.614;2023-02-01T07:25:25;33.55;;;6.00;;
52614;SDS011;38508;53.158;6.614;2023-02-01T07:27:51;31.88;;;6.75;;
52614;SDS011;38508;53.158;6.614;2023-02-01T07:30:16;38.85;;;6.03;;
52614;SDS011;38508;53.158;6.614;2023-02-01T07:32:42;33.08;;;6.82;;
52614;SDS011;38508;53.158;6.614;2023-02-01T07:35:08;30.83;;;6.53;;
52614;SDS011;38508;53.158;6.614;2023-02-01T07:37:34;31.33;;;6.82;;
52614;SDS011;38508;53.158;6.614;2023-02-01T07:39:59;33.83;;;5.90;;
52614;SDS011;38508;53.158;6.614;2023-02-01T07:42:25;33.30;;;6.43;;
52614;SDS011;38508;53.158;6.614;2023-02-01T07:44:51;31.80;;;6.28;;
52614;SDS011;38508;53.158;6.614;2023-02-01T07:47:16;33.95;;;6.78;;
52614;SDS011;38508;53.158;6.614;2023-02-01T07:49:42;31.58;;;6.65;;
52614;SDS011;38508;53.158;6.614;2023-02-01T07:52:08;42.05;;;8.70;;
52614;SDS011;38508;53.158;6.614;2023-02-01T07:54:36;30.52;;;5.55;;
52614;SDS011;38508;53.158;6.614;2023-02-01T07:57:01;36.45;;;7.78;;
52614;SDS011;38508;53.158;6.614;2023-02-01T07:59:27;32.80;;;6.88;;
52614;SDS011;38508;53.158;6.614;2023-02-01T08:01:53;38.80;;;6.82;;
52614;SDS011;38508;53.158;6.614;2023-02-01T08:04:18;29.75;;;6.18;;
52614;SDS011;38508;53.158;6.614;2023-02-01T08:06:44;33.10;;;7.40;;
52614;SDS011;38508;53.158;6.614;2023-02-01T08:09:10;32.05;;;6.63;;
52614;SDS011;38508;53.158;6.614;2023-02-01T08:11:36;28.02;;;6.80;;
52614;SDS011;38508;53.158;6.614;2023-02-01T08:14:03;36.83;;;7.35;;
52614;SDS011;38508;53.158;6.614;2023-02-01T08:16:30;27.08;;;6.45;;
52614;SDS011;38508;53.158;6.614;2023-02-01T08:18:55;33.85;;;6.70;;
52614;SDS011;38508;53.158;6.614;2023-02-01T08:21:22;30.02;;;5.07;;
52614;SDS011;38508;53.158;6.614;2023-02-01T08:23:50;33.65;;;6.35;;
52614;SDS011;38508;53.158;6.614;2023-02-01T08:26:17;30.90;;;5.65;;
52614;SDS011;38508;53.158;6.614;2023-02-01T08:28:47;23.70;;;5.80;;
52614;SDS011;38508;53.158;6.614;2023-02-01T08:31:15;35.53;;;6.75;;
52614;SDS011;38508;53.158;6.614;2023-02-01T08:33:42;33.42;;;6.35;;
52614;SDS011;38508;53.158;6.614;2023-02-01T08:36:09;25.10;;;6.47;;
52614;SDS011;38508;53.158;6.614;2023-02-01T08:38:36;29.35;;;6.55;;
52614;SDS011;38508;53.158;6.614;2023-02-01T08:41:09;30.13;;;6.25;;
52614;SDS011;38508;53.158;6.614;2023-02-01T08:43:38;34.25;;;6.85;;
52614;SDS011;38508;53.158;6.614;2023-02-01T08:46:04;29.92;;;7.05;;
52614;SDS011;38508;53.158;6.614;2023-02-01T08:48:31;33.30;;;7.15;;
52614;SDS011;38508;53.158;6.614;2023-02-01T08:51:00;31.65;;;7.07;;
52614;SDS011;38508;53.158;6.614;2023-02-01T08:53:30;32.08;;;7.18;;
52614;SDS011;38508;53.158;6.614;2023-02-01T08:55:56;47.20;;;8.52;;
52614;SDS011;38508;53.158;6.614;2023-02-01T08:58:22;34.25;;;7.00;;
52614;SDS011;38508;53.158;6.614;2023-02-01T09:00:48;28.77;;;6.45;;
52614;SDS011;38508;53.158;6.614;2023-02-01T09:03:15;32.83;;;6.25;;
52614;SDS011;38508;53.158;6.614;2023-02-01T09:05:40;28.25;;;6.47;;
52614;SDS011;38508;53.158;6.614;2023-02-01T09:08:06;28.17;;;6.60;;
52614;SDS011;38508;53.158;6.614;2023-02-01T09:10:33;30.73;;;6.15;;
52614;SDS011;38508;53.158;6.614;2023-02-01T09:12:59;26.75;;;6.35;;
52614;SDS011;38508;53.158;6.614;2023-02-01T09:15:25;29.60;;;7.10;;
52614;SDS011;38508;53.158;6.614;2023-02-01T09:17:51;42.90;;;6.97;;
52614;SDS011;38508;53.158;6.614;2023-02-01T09:20:17;29.60;;;5.80;;
52614;SDS011;38508;53.158;6.614;2023-02-01T09:22:45;28.20;;;6.32;;
52614;SDS011;38508;53.158;6.614;2023-02-01T09:25:10;35.85;;;6.05;;
52614;SDS011;38508;53.158;6.614;2023-02-01T09:27:36;32.13;;;6.50;;
52614;SDS011;38508;53.158;6.614;2023-02-01T09:30:03;25.98;;;5.10;;
52614;SDS011;38508;53.158;6.614;2023-02-01T09:32:29;27.35;;;6.57;;
52614;SDS011;38508;53.158;6.614;2023-02-01T09:34:55;25.42;;;5.57;;
52614;SDS011;38508;53.158;6.614;2023-02-01T09:37:21;28.23;;;6.22;;
52614;SDS011;38508;53.158;6.614;2023-02-01T09:39:47;27.40;;;5.75;;
52614;SDS011;38508;53.158;6.614;2023-02-01T09:47:29;28.73;;;5.10;;
52614;SDS011;38508;53.158;6.614;2023-02-01T09:50:08;37.28;;;5.72;;
52614;SDS011;38508;53.158;6.614;2023-02-01T09:52:59;27.15;;;6.05;;
52614;SDS011;38508;53.158;6.614;2023-02-01T09:55:38;30.85;;;7.47;;
52614;SDS011;38508;53.158;6.614;2023-02-01T10:00:50;26.85;;;6.88;;
52614;SDS011;38508;53.158;6.614;2023-02-01T10:03:18;34.22;;;7.13;;
52614;SDS011;38508;53.158;6.614;2023-02-01T10:12:00;33.05;;;9.73;;
52614;SDS011;38508;53.158;6.614;2023-02-01T10:20:17;31.88;;;9.15;;
52614;SDS011;38508;53.158;6.614;2023-02-01T10:22:54;28.25;;;8.02;;
52614;SDS011;38508;53.158;6.614;2023-02-01T10:28:18;36.00;;;8.57;;
52614;SDS011;38508;53.158;6.614;2023-02-01T10:30:47;27.08;;;7.38;;
52614;SDS011;38508;53.158;6.614;2023-02-01T10:33:18;35.72;;;9.23;;
52614;SDS011;38508;53.158;6.614;2023-02-01T10:35:52;29.30;;;7.10;;
52614;SDS011;38508;53.158;6.614;2023-02-01T10:38:25;31.75;;;7.22;;
52614;SDS011;38508;53.158;6.614;2023-02-01T10:40:53;29.83;;;6.18;;
52614;SDS011;38508;53.158;6.614;2023-02-01T10:43:23;24.27;;;5.57;;
52614;SDS011;38508;53.158;6.614;2023-02-01T10:45:48;36.50;;;5.55;;
52614;SDS011;38508;53.158;6.614;2023-02-01T10:48:14;27.65;;;6.90;;
52614;SDS011;38508;53.158;6.614;2023-02-01T10:50:42;24.75;;;5.25;;
52614;SDS011;38508;53.158;6.614;2023-02-01T10:53:36;26.73;;;5.35;;
52614;SDS011;38508;53.158;6.614;2023-02-01T10:56:11;28.42;;;6.15;;
52614;SDS011;38508;53.158;6.614;2023-02-01T10:58:44;34.28;;;6.65;;
52614;SDS011;38508;53.158;6.614;2023-02-01T11:01:19;28.25;;;8.05;;
52614;SDS011;38508;53.158;6.614;2023-02-01T11:06:27;32.17;;;12.57;;
52614;SDS011;38508;53.158;6.614;2023-02-01T11:08:58;33.13;;;12.70;;
52614;SDS011;38508;53.158;6.614;2023-02-01T11:16:47;34.53;;;17.67;;
52614;SDS011;38508;53.158;6.614;2023-02-01T11:19:15;39.22;;;15.10;;
52614;SDS011;38508;53.158;6.614;2023-02-01T11:21:42;28.15;;;15.25;;
52614;SDS011;38508;53.158;6.614;2023-02-01T11:24:22;36.03;;;12.93;;
52614;SDS011;38508;53.158;6.614;2023-02-01T11:27:04;35.53;;;16.40;;
52614;SDS011;38508;53.158;6.614;2023-02-01T11:29:41;37.25;;;22.70;;
52614;SDS011;38508;53.158;6.614;2023-02-01T11:32:10;43.65;;;23.77;;
52614;SDS011;38508;53.158;6.614;2023-02-01T11:34:43;44.42;;;26.58;;
52614;SDS011;38508;53.158;6.614;2023-02-01T11:39:59;47.78;;;25.67;;
52614;SDS011;38508;53.158;6.614;2023-02-01T11:42:35;37.90;;;17.50;;
52614;SDS011;38508;53.158;6.614;2023-02-01T11:45:34;45.80;;;19.63;;
52614;SDS011;38508;53.158;6.614;2023-02-01T11:48:02;39.05;;;18.58;;
52614;SDS011;38508;53.158;6.614;2023-02-01T11:55:56;39.97;;;17.88;;
52614;SDS011;38508;53.158;6.614;2023-02-01T12:01:30;36.28;;;15.63;;
52614;SDS011;38508;53.158;6.614;2023-02-01T12:07:14;37.97;;;13.80;;
52614;SDS011;38508;53.158;6.614;2023-02-01T12:09:52;35.00;;;13.85;;
52614;SDS011;38508;53.158;6.614;2023-02-01T12:15:22;33.25;;;11.02;;
52614;SDS011;38508;53.158;6.614;2023-02-01T12:23:20;30.90;;;8.85;;
52614;SDS011;38508;53.158;6.614;2023-02-01T12:26:21;37.45;;;10.43;;
52614;SDS011;38508;53.158;6.614;2023-02-01T12:35:12;36.20;;;7.88;;
52614;SDS011;38508;53.158;6.614;2023-02-01T12:37:50;30.80;;;8.15;;
52614;SDS011;38508;53.158;6.614;2023-02-01T12:43:13;31.75;;;8.68;;
52614;SDS011;38508;53.158;6.614;2023-02-01T12:45:57;34.40;;;9.15;;
52614;SDS011;38508;53.158;6.614;2023-02-01T12:51:24;37.15;;;8.95;;
52614;SDS011;38508;53.158;6.614;2023-02-01T12:54:06;37.25;;;11.20;;
52614;SDS011;38508;53.158;6.614;2023-02-01T12:56:39;29.65;;;8.70;;
52614;SDS011;38508;53.158;6.614;2023-02-01T12:59:20;33.67;;;8.65;;
52614;SDS011;38508;53.158;6.614;2023-02-01T13:08:11;36.38;;;8.02;;
52614;SDS011;38508;53.158;6.614;2023-02-01T13:10:21;35.92;;;6.15;;
52614;SDS011;38508;53.158;6.614;2023-02-01T13:16:13;36.63;;;7.80;;
52614;SDS011;38508;53.158;6.614;2023-02-01T13:18:57;34.92;;;8.77;;
52614;SDS011;38508;53.158;6.614;2023-02-01T13:21:31;38.50;;;8.80;;
52614;SDS011;38508;53.158;6.614;2023-02-01T13:24:01;37.17;;;7.55;;
52614;SDS011;38508;53.158;6.614;2023-02-01T13:26:28;43.50;;;8.35;;
52614;SDS011;38508;53.158;6.614;2023-02-01T13:29:04;42.22;;;8.23;;
52614;SDS011;38508;53.158;6.614;2023-02-01T13:39:45;33.88;;;6.40;;
52614;SDS011;38508;53.158;6.614;2023-02-01T13:42:14;33.47;;;7.20;;
52614;SDS011;38508;53.158;6.614;2023-02-01T13:44:45;35.53;;;6.85;;
52614;SDS011;38508;53.158;6.614;2023-02-01T13:50:13;28.60;;;6.40;;
52614;SDS011;38508;53.158;6.614;2023-02-01T13:52:45;28.95;;;5.90;;
52614;SDS011;38508;53.158;6.614;2023-02-01T13:57:48;38.20;;;6.80;;
52614;SDS011;38508;53.158;6.614;2023-02-01T14:00:38;32.28;;;7.10;;
52614;SDS011;38508;53.158;6.614;2023-02-01T14:10:50;26.42;;;5.88;;
52614;SDS011;38508;53.158;6.614;2023-02-01T14:16:15;35.28;;;7.22;;
52614;SDS011;38508;53.158;6.614;2023-02-01T14:23:40;30.45;;;7.03;;
52614;SDS011;38508;53.158;6.614;2023-02-01T14:26:08;37.35;;;7.70;;
52614;SDS011;38508;53.158;6.614;2023-02-01T14:28:41;42.10;;;8.02;;
52614;SDS011;38508;53.158;6.614;2023-02-01T14:31:13;38.42;;;7.47;;
52614;SDS011;38508;53.158;6.614;2023-02-01T14:33:53;37.08;;;7.55;;
52614;SDS011;38508;53.158;6.614;2023-02-01T14:36:24;33.72;;;8.93;;
52614;SDS011;38508;53.158;6.614;2023-02-01T14:38:50;39.95;;;7.90;;
52614;SDS011;38508;53.158;6.614;2023-02-01T14:41:28;31.60;;;6.88;;
52614;SDS011;38508;53.158;6.614;2023-02-01T14:49:34;32.08;;;7.38;;
52614;SDS011;38508;53.158;6.614;2023-02-01T14:52:23;49.15;;;9.25;;
52614;SDS011;38508;53.158;6.614;2023-02-01T14:55:12;32.45;;;6.90;;
52614;SDS011;38508;53.158;6.614;2023-02-01T14:57:50;38.78;;;7.45;;
52614;SDS011;38508;53.158;6.614;2023-02-01T15:00:24;38.20;;;7.93;;
52614;SDS011;38508;53.158;6.614;2023-02-01T15:02:52;35.47;;;8.40;;
52614;SDS011;38508;53.158;6.614;2023-02-01T15:05:30;39.40;;;8.15;;
52614;SDS011;38508;53.158;6.614;2023-02-01T15:08:20;40.17;;;8.02;;
52614;SDS011;38508;53.158;6.614;2023-02-01T15:10:46;36.30;;;8.07;;
52614;SDS011;38508;53.158;6.614;2023-02-01T15:13:27;36.30;;;7.88;;
52614;SDS011;38508;53.158;6.614;2023-02-01T15:16:00;40.05;;;8.50;;
52614;SDS011;38508;53.158;6.614;2023-02-01T15:18:26;31.75;;;7.57;;
52614;SDS011;38508;53.158;6.614;2023-02-01T15:20:59;36.92;;;7.80;;
52614;SDS011;38508;53.158;6.614;2023-02-01T15:23:25;28.40;;;6.93;;
52614;SDS011;38508;53.158;6.614;2023-02-01T15:25:53;41.15;;;7.60;;
52614;SDS011;38508;53.158;6.614;2023-02-01T15:28:20;34.33;;;6.72;;
52614;SDS011;38508;53.158;6.614;2023-02-01T15:30:53;33.10;;;7.60;;
52614;SDS011;38508;53.158;6.614;2023-02-01T15:33:23;33.78;;;6.88;;
52614;SDS011;38508;53.158;6.614;2023-02-01T15:35:50;31.65;;;6.63;;
52614;SDS011;38508;53.158;6.614;2023-02-01T15:46:15;34.22;;;6.20;;
52614;SDS011;38508;53.158;6.614;2023-02-01T15:48:44;28.83;;;6.25;;
52614;SDS011;38508;53.158;6.614;2023-02-01T15:51:17;38.00;;;6.97;;
52614;SDS011;38508;53.158;6.614;2023-02-01T15:53:45;29.92;;;6.45;;
52614;SDS011;38508;53.158;6.614;2023-02-01T15:56:16;30.23;;;6.20;;
52614;SDS011;38508;53.158;6.614;2023-02-01T15:58:49;35.42;;;6.53;;
52614;SDS011;38508;53.158;6.614;2023-02-01T16:01:17;32.13;;;6.55;;
52614;SDS011;38508;53.158;6.614;2023-02-01T16:03:44;27.38;;;6.38;;
52614;SDS011;38508;53.158;6.614;2023-02-01T16:13:59;27.35;;;7.25;;
52614;SDS011;38508;53.158;6.614;2023-02-01T16:16:28;27.48;;;6.28;;
52614;SDS011;38508;53.158;6.614;2023-02-01T16:18:54;29.23;;;6.90;;
52614;SDS011;38508;53.158;6.614;2023-02-01T16:21:20;29.60;;;6.72;;
52614;SDS011;38508;53.158;6.614;2023-02-01T16:23:49;34.28;;;6.35;;
52614;SDS011;38508;53.158;6.614;2023-02-01T16:26:16;30.80;;;5.70;;
52614;SDS011;38508;53.158;6.614;2023-02-01T16:28:43;26.65;;;5.10;;
52614;SDS011;38508;53.158;6.614;2023-02-01T16:31:12;29.08;;;6.50;;
52614;SDS011;38508;53.158;6.614;2023-02-01T16:33:49;34.42;;;6.45;;
52614;SDS011;38508;53.158;6.614;2023-02-01T16:36:16;28.30;;;5.72;;
52614;SDS011;38508;53.158;6.614;2023-02-01T16:38:42;24.88;;;5.82;;
52614;SDS011;38508;53.158;6.614;2023-02-01T16:41:10;22.23;;;5.55;;
52614;SDS011;38508;53.158;6.614;2023-02-01T16:43:38;24.35;;;5.43;;
52614;SDS011;38508;53.158;6.614;2023-02-01T16:46:04;25.25;;;5.47;;
52614;SDS011;38508;53.158;6.614;2023-02-01T16:48:31;28.63;;;6.15;;
52614;SDS011;38508;53.158;6.614;2023-02-01T16:51:00;27.73;;;6.00;;
52614;SDS011;38508;53.158;6.614;2023-02-01T16:53:33;23.75;;;4.97;;
52614;SDS011;38508;53.158;6.614;2023-02-01T16:55:59;22.67;;;4.90;;
52614;SDS011;38508;53.158;6.614;2023-02-01T16:58:25;28.65;;;5.45;;
52614;SDS011;38508;53.158;6.614;2023-02-01T17:00:52;27.08;;;5.30;;
52614;SDS011;38508;53.158;6.614;2023-02-01T17:03:18;29.17;;;5.18;;
52614;SDS011;38508;53.158;6.614;2023-02-01T17:05:55;31.77;;;6.00;;
52614;SDS011;38508;53.158;6.614;2023-02-01T17:08:29;27.87;;;5.13;;
52614;SDS011;38508;53.158;6.614;2023-02-01T17:10:59;29.30;;;5.75;;
52614;SDS011;38508;53.158;6.614;2023-02-01T17:13:25;37.30;;;5.93;;
52614;SDS011;38508;53.158;6.614;2023-02-01T17:15:52;23.48;;;5.20;;
52614;SDS011;38508;53.158;6.614;2023-02-01T17:18:30;28.05;;;5.72;;
52614;SDS011;38508;53.158;6.614;2023-02-01T17:20:59;29.48;;;6.22;;
52614;SDS011;38508;53.158;6.614;2023-02-01T17:23:26;27.77;;;6.03;;
52614;SDS011;38508;53.158;6.614;2023-02-01T17:25:53;25.75;;;7.50;;
52614;SDS011;38508;53.158;6.614;2023-02-01T17:28:19;26.92;;;5.82;;
52614;SDS011;38508;53.158;6.614;2023-02-01T17:30:44;37.60;;;6.82;;
52614;SDS011;38508;53.158;6.614;2023-02-01T17:33:17;31.48;;;5.70;;
52614;SDS011;38508;53.158;6.614;2023-02-01T17:35:45;33.00;;;5.75;;